sensor_id;sensor_type;location;lat;lon;timestamp;P1;durP1;ratioP1;P2;durP2;ratioP2
39956;SDS011;48483;44.640;7.494;2023-03-11T00:00:52;6.05;;;2.55;;
39956;SDS011;48483;44.640;7.494;2023-03-11T00:03:20;7.50;;;2.22;;
39956;SDS011;48483;44.640;7.494;2023-03-11T00:05:50;4.03;;;1.88;;
39956;SDS011;48483;44.640;7.494;2023-03-11T00:08:19;6.93;;;1.80;;
39956;SDS011;48483;44.640;7.494;2023-03-11T00:10:50;4.28;;;1.20;;
39956;SDS011;48483;44.640;7.494;2023-03-11T00:13:18;3.10;;;1.42;;
39956;SDS011;48483;44.640;7.494;2023-03-11T00:15:45;3.13;;;1.75;;
39956;SDS011;48483;44.640;7.494;2023-03-11T00:18:14;3.72;;;1.40;;
39956;SDS011;48483;44.640;7.494;2023-03-11T00:20:41;4.38;;;1.52;;
39956;SDS011;48483;44.640;7.494;2023-03-11T00:23:10;4.90;;;1.50;;
39956;SDS011;48483;44.640;7.494;2023-03-11T00:25:38;4.63;;;1.17;;
39956;SDS011;48483;44.640;7.494;2023-03-11T00:28:06;4.40;;;1.38;;
39956;SDS011;48483;44.640;7.494;2023-03-11T00:30:35;3.47;;;1.20;;
39956;SDS011;48483;44.640;7.494;2023-03-11T00:33:02;4.63;;;1.30;;
39956;SDS011;48483;44.640;7.494;2023-03-11T00:35:30;1.65;;;0.93;;
39956;SDS011;48483;44.640;7.494;2023-03-11T00:37:58;4.10;;;1.10;;
39956;SDS011;48483;44.640;7.494;2023-03-11T00:40:27;3.15;;;1.25;;
39956;SDS011;48483;44.640;7.494;2023-03-11T00:42:55;3.83;;;1.70;;
39956;SDS011;48483;44.640;7.494;2023-03-11T00:45:24;2.33;;;1.15;;
39956;SDS011;48483;44.640;7.494;2023-03-11T00:47:51;3.33;;;1.02;;
39956;SDS011;48483;44.640;7.494;2023-03-11T00:50:20;2.42;;;0.80;;
39956;SDS011;48483;44.640;7.494;2023-03-11T00:52:48;2.65;;;1.10;;
39956;SDS011;48483;44.640;7.494;2023-03-11T00:55:18;3.17;;;0.90;;
39956;SDS011;48483;44.640;7.494;2023-03-11T00:57:46;7.90;;;1.25;;
39956;SDS011;48483;44.640;7.494;2023-03-11T01:00:13;2.33;;;0.93;;
39956;SDS011;48483;44.640;7.494;2023-03-11T01:02:42;2.28;;;1.05;;
39956;SDS011;48483;44.640;7.494;2023-03-11T01:05:09;1.80;;;0.90;;
39956;SDS011;48483;44.640;7.494;2023-03-11T01:07:36;1.70;;;0.80;;
39956;SDS011;48483;44.640;7.494;2023-03-11T01:10:03;4.70;;;1.60;;
39956;SDS011;48483;44.640;7.494;2023-03-11T01:12:31;2.45;;;1.00;;
39956;SDS011;48483;44.640;7.494;2023-03-11T01:14:58;4.93;;;1.58;;
39956;SDS011;48483;44.640;7.494;2023-03-11T01:17:25;5.38;;;1.10;;
39956;SDS011;48483;44.640;7.494;2023-03-11T01:19:53;3.40;;;1.02;;
39956;SDS011;48483;44.640;7.494;2023-03-11T01:22:21;6.63;;;1.23;;
39956;SDS011;48483;44.640;7.494;2023-03-11T01:24:47;2.45;;;1.15;;
39956;SDS011;48483;44.640;7.494;2023-03-11T01:27:14;3.30;;;0.98;;
39956;SDS011;48483;44.640;7.494;2023-03-11T01:29:41;1.92;;;1.02;;
39956;SDS011;48483;44.640;7.494;2023-03-11T01:32:09;2.30;;;1.10;;
39956;SDS011;48483;44.640;7.494;2023-03-11T01:34:36;4.63;;;1.70;;
39956;SDS011;48483;44.640;7.494;2023-03-11T01:37:04;3.78;;;1.20;;
39956;SDS011;48483;44.640;7.494;2023-03-11T01:39:30;3.00;;;1.15;;
39956;SDS011;48483;44.640;7.494;2023-03-11T01:41:57;3.67;;;0.90;;
39956;SDS011;48483;44.640;7.494;2023-03-11T01:44:24;3.95;;;0.88;;
39956;SDS011;48483;44.640;7.494;2023-03-11T01:49:59;6.05;;;1.23;;
39956;SDS011;48483;44.640;7.494;2023-03-11T01:52:28;7.47;;;1.52;;
39956;SDS011;48483;44.640;7.494;2023-03-11T01:54:56;2.22;;;1.15;;
39956;SDS011;48483;44.640;7.494;2023-03-11T01:57:22;3.83;;;1.02;;
39956;SDS011;48483;44.640;7.494;2023-03-11T01:59:50;2.05;;;0.90;;
39956;SDS011;48483;44.640;7.494;2023-03-11T02:02:22;1.60;;;0.93;;
39956;SDS011;48483;44.640;7.494;2023-03-11T02:04:51;3.50;;;1.10;;
39956;SDS011;48483;44.640;7.494;2023-03-11T02:07:22;2.95;;;0.70;;
39956;SDS011;48483;44.640;7.494;2023-03-11T02:09:51;0.98;;;0.68;;
39956;SDS011;48483;44.640;7.494;2023-03-11T02:12:18;2.53;;;0.82;;
39956;SDS011;48483;44.640;7.494;2023-03-11T02:14:46;2.50;;;0.82;;
39956;SDS011;48483;44.640;7.494;2023-03-11T02:17:15;2.22;;;1.00;;
39956;SDS011;48483;44.640;7.494;2023-03-11T02:19:47;3.42;;;1.08;;
39956;SDS011;48483;44.640;7.494;2023-03-11T02:22:24;2.17;;;1.10;;
39956;SDS011;48483;44.640;7.494;2023-03-11T02:27:26;1.65;;;0.90;;
39956;SDS011;48483;44.640;7.494;2023-03-11T02:29:56;4.85;;;1.40;;
39956;SDS011;48483;44.640;7.494;2023-03-11T02:32:25;2.45;;;0.88;;
39956;SDS011;48483;44.640;7.494;2023-03-11T02:34:53;3.08;;;0.80;;
39956;SDS011;48483;44.640;7.494;2023-03-11T02:37:19;1.33;;;0.60;;
39956;SDS011;48483;44.640;7.494;2023-03-11T02:39:53;1.88;;;0.80;;
39956;SDS011;48483;44.640;7.494;2023-03-11T02:42:21;1.45;;;0.77;;
39956;SDS011;48483;44.640;7.494;2023-03-11T02:44:54;3.13;;;0.90;;
39956;SDS011;48483;44.640;7.494;2023-03-11T02:47:27;1.98;;;0.93;;
39956;SDS011;48483;44.640;7.494;2023-03-11T02:49:54;3.58;;;0.90;;
39956;SDS011;48483;44.640;7.494;2023-03-11T02:52:22;3.35;;;1.05;;
39956;SDS011;48483;44.640;7.494;2023-03-11T02:54:50;3.10;;;1.00;;
39956;SDS011;48483;44.640;7.494;2023-03-11T02:57:17;4.18;;;1.35;;
39956;SDS011;48483;44.640;7.494;2023-03-11T02:59:44;4.78;;;1.40;;
39956;SDS011;48483;44.640;7.494;2023-03-11T03:02:13;2.75;;;1.10;;
39956;SDS011;48483;44.640;7.494;2023-03-11T03:04:41;4.80;;;1.25;;
39956;SDS011;48483;44.640;7.494;2023-03-11T03:07:08;2.00;;;1.08;;
39956;SDS011;48483;44.640;7.494;2023-03-11T03:09:36;2.13;;;1.20;;
39956;SDS011;48483;44.640;7.494;2023-03-11T03:12:04;2.15;;;1.23;;
39956;SDS011;48483;44.640;7.494;2023-03-11T03:14:32;3.05;;;1.13;;
39956;SDS011;48483;44.640;7.494;2023-03-11T03:16:59;2.95;;;1.08;;
39956;SDS011;48483;44.640;7.494;2023-03-11T03:19:27;4.63;;;0.80;;
39956;SDS011;48483;44.640;7.494;2023-03-11T03:21:54;3.10;;;1.02;;
39956;SDS011;48483;44.640;7.494;2023-03-11T03:24:22;1.27;;;0.60;;
39956;SDS011;48483;44.640;7.494;2023-03-11T03:26:49;2.08;;;0.90;;
39956;SDS011;48483;44.640;7.494;2023-03-11T03:29:17;2.30;;;1.00;;
39956;SDS011;48483;44.640;7.494;2023-03-11T03:31:44;1.63;;;0.95;;
39956;SDS011;48483;44.640;7.494;2023-03-11T03:34:12;3.95;;;1.23;;
39956;SDS011;48483;44.640;7.494;2023-03-11T03:36:40;3.75;;;1.17;;
39956;SDS011;48483;44.640;7.494;2023-03-11T03:39:07;2.90;;;1.10;;
39956;SDS011;48483;44.640;7.494;2023-03-11T03:41:36;2.00;;;1.15;;
39956;SDS011;48483;44.640;7.494;2023-03-11T03:44:04;2.95;;;1.20;;
39956;SDS011;48483;44.640;7.494;2023-03-11T03:46:32;4.00;;;1.67;;
39956;SDS011;48483;44.640;7.494;2023-03-11T03:48:59;3.75;;;1.55;;
39956;SDS011;48483;44.640;7.494;2023-03-11T03:51:28;3.20;;;1.17;;
39956;SDS011;48483;44.640;7.494;2023-03-11T03:54:11;4.57;;;1.55;;
39956;SDS011;48483;44.640;7.494;2023-03-11T03:56:37;3.97;;;1.40;;
39956;SDS011;48483;44.640;7.494;2023-03-11T03:59:05;3.35;;;1.25;;
39956;SDS011;48483;44.640;7.494;2023-03-11T04:01:37;4.60;;;1.40;;
39956;SDS011;48483;44.640;7.494;2023-03-11T04:04:04;3.65;;;1.30;;
39956;SDS011;48483;44.640;7.494;2023-03-11T04:06:31;3.67;;;1.63;;
39956;SDS011;48483;44.640;7.494;2023-03-11T04:09:02;6.05;;;1.20;;
39956;SDS011;48483;44.640;7.494;2023-03-11T04:11:33;5.05;;;1.40;;
39956;SDS011;48483;44.640;7.494;2023-03-11T04:14:01;4.15;;;1.10;;
39956;SDS011;48483;44.640;7.494;2023-03-11T04:16:29;3.50;;;1.40;;
39956;SDS011;48483;44.640;7.494;2023-03-11T04:19:09;4.15;;;1.10;;
39956;SDS011;48483;44.640;7.494;2023-03-11T04:21:37;3.35;;;1.48;;
39956;SDS011;48483;44.640;7.494;2023-03-11T04:26:51;3.15;;;1.05;;
39956;SDS011;48483;44.640;7.494;2023-03-11T04:29:18;3.90;;;1.25;;
39956;SDS011;48483;44.640;7.494;2023-03-11T04:31:49;3.40;;;1.52;;
39956;SDS011;48483;44.640;7.494;2023-03-11T04:34:15;4.10;;;0.90;;
39956;SDS011;48483;44.640;7.494;2023-03-11T04:36:42;4.25;;;1.17;;
39956;SDS011;48483;44.640;7.494;2023-03-11T04:39:11;1.85;;;0.80;;
39956;SDS011;48483;44.640;7.494;2023-03-11T04:44:11;3.80;;;0.98;;
39956;SDS011;48483;44.640;7.494;2023-03-11T04:46:38;3.05;;;0.80;;
39956;SDS011;48483;44.640;7.494;2023-03-11T04:49:07;6.70;;;1.33;;
39956;SDS011;48483;44.640;7.494;2023-03-11T04:51:35;2.42;;;1.40;;
39956;SDS011;48483;44.640;7.494;2023-03-11T04:54:02;4.57;;;1.08;;
39956;SDS011;48483;44.640;7.494;2023-03-11T04:56:30;3.88;;;1.20;;
39956;SDS011;48483;44.640;7.494;2023-03-11T04:58:57;2.25;;;0.88;;
39956;SDS011;48483;44.640;7.494;2023-03-11T05:01:26;3.63;;;1.00;;
39956;SDS011;48483;44.640;7.494;2023-03-11T05:03:55;1.52;;;0.90;;
39956;SDS011;48483;44.640;7.494;2023-03-11T05:06:21;4.55;;;0.85;;
39956;SDS011;48483;44.640;7.494;2023-03-11T05:08:48;3.70;;;1.05;;
39956;SDS011;48483;44.640;7.494;2023-03-11T05:11:15;3.00;;;0.45;;
39956;SDS011;48483;44.640;7.494;2023-03-11T05:13:44;1.92;;;0.60;;
39956;SDS011;48483;44.640;7.494;2023-03-11T05:16:11;1.67;;;0.63;;
39956;SDS011;48483;44.640;7.494;2023-03-11T05:18:39;1.48;;;0.60;;
39956;SDS011;48483;44.640;7.494;2023-03-11T05:21:06;1.02;;;0.50;;
39956;SDS011;48483;44.640;7.494;2023-03-11T05:23:35;0.70;;;0.50;;
39956;SDS011;48483;44.640;7.494;2023-03-11T05:26:02;3.17;;;0.50;;
39956;SDS011;48483;44.640;7.494;2023-03-11T05:28:30;2.72;;;0.50;;
39956;SDS011;48483;44.640;7.494;2023-03-11T05:30:57;3.45;;;0.60;;
39956;SDS011;48483;44.640;7.494;2023-03-11T05:33:24;3.45;;;0.93;;
39956;SDS011;48483;44.640;7.494;2023-03-11T05:35:54;1.48;;;0.70;;
39956;SDS011;48483;44.640;7.494;2023-03-11T05:38:21;1.73;;;0.90;;
39956;SDS011;48483;44.640;7.494;2023-03-11T05:40:48;1.98;;;0.60;;
39956;SDS011;48483;44.640;7.494;2023-03-11T05:43:15;1.42;;;0.50;;
39956;SDS011;48483;44.640;7.494;2023-03-11T05:45:45;1.55;;;0.80;;
39956;SDS011;48483;44.640;7.494;2023-03-11T05:48:11;4.28;;;0.80;;
39956;SDS011;48483;44.640;7.494;2023-03-11T05:50:38;1.50;;;0.77;;
39956;SDS011;48483;44.640;7.494;2023-03-11T05:53:07;1.58;;;0.82;;
39956;SDS011;48483;44.640;7.494;2023-03-11T05:55:34;3.33;;;1.35;;
39956;SDS011;48483;44.640;7.494;2023-03-11T05:58:00;3.78;;;1.75;;
39956;SDS011;48483;44.640;7.494;2023-03-11T06:00:27;3.50;;;1.58;;
39956;SDS011;48483;44.640;7.494;2023-03-11T06:02:56;3.67;;;1.67;;
39956;SDS011;48483;44.640;7.494;2023-03-11T06:05:23;5.57;;;1.52;;
39956;SDS011;48483;44.640;7.494;2023-03-11T06:07:51;5.03;;;1.40;;
39956;SDS011;48483;44.640;7.494;2023-03-11T06:10:20;4.93;;;1.23;;
39956;SDS011;48483;44.640;7.494;2023-03-11T06:12:47;3.10;;;1.30;;
39956;SDS011;48483;44.640;7.494;2023-03-11T06:15:26;5.75;;;1.20;;
39956;SDS011;48483;44.640;7.494;2023-03-11T06:17:53;4.75;;;0.90;;
39956;SDS011;48483;44.640;7.494;2023-03-11T06:20:20;2.42;;;1.05;;
39956;SDS011;48483;44.640;7.494;2023-03-11T06:22:47;3.03;;;1.42;;
39956;SDS011;48483;44.640;7.494;2023-03-11T06:25:15;3.20;;;0.52;;
39956;SDS011;48483;44.640;7.494;2023-03-11T06:27:47;2.63;;;1.48;;
39956;SDS011;48483;44.640;7.494;2023-03-11T06:30:16;1.77;;;0.70;;
39956;SDS011;48483;44.640;7.494;2023-03-11T06:32:51;2.13;;;0.70;;
39956;SDS011;48483;44.640;7.494;2023-03-11T06:35:19;2.88;;;0.98;;
39956;SDS011;48483;44.640;7.494;2023-03-11T06:37:46;5.18;;;1.50;;
39956;SDS011;48483;44.640;7.494;2023-03-11T06:40:13;7.32;;;1.75;;
39956;SDS011;48483;44.640;7.494;2023-03-11T06:42:40;7.50;;;1.35;;
39956;SDS011;48483;44.640;7.494;2023-03-11T06:45:11;4.85;;;1.40;;
39956;SDS011;48483;44.640;7.494;2023-03-11T06:47:40;8.30;;;1.67;;
39956;SDS011;48483;44.640;7.494;2023-03-11T06:50:07;7.55;;;1.70;;
39956;SDS011;48483;44.640;7.494;2023-03-11T06:52:34;4.07;;;1.95;;
39956;SDS011;48483;44.640;7.494;2023-03-11T06:55:01;7.95;;;1.52;;
39956;SDS011;48483;44.640;7.494;2023-03-11T06:57:29;6.30;;;1.38;;
39956;SDS011;48483;44.640;7.494;2023-03-11T06:59:58;4.80;;;1.60;;
39956;SDS011;48483;44.640;7.494;2023-03-11T07:02:27;6.10;;;1.70;;
39956;SDS011;48483;44.640;7.494;2023-03-11T07:04:53;5.97;;;1.85;;
39956;SDS011;48483;44.640;7.494;2023-03-11T07:07:20;10.55;;;1.77;;
39956;SDS011;48483;44.640;7.494;2023-03-11T07:09:47;11.73;;;1.90;;
39956;SDS011;48483;44.640;7.494;2023-03-11T07:12:14;7.95;;;1.77;;
39956;SDS011;48483;44.640;7.494;2023-03-11T07:14:41;4.50;;;1.67;;
39956;SDS011;48483;44.640;7.494;2023-03-11T07:17:07;4.85;;;1.48;;
39956;SDS011;48483;44.640;7.494;2023-03-11T07:19:41;3.55;;;1.15;;
39956;SDS011;48483;44.640;7.494;2023-03-11T07:22:08;6.07;;;1.60;;
39956;SDS011;48483;44.640;7.494;2023-03-11T07:24:35;6.45;;;2.75;;
39956;SDS011;48483;44.640;7.494;2023-03-11T07:27:01;5.68;;;2.40;;
39956;SDS011;48483;44.640;7.494;2023-03-11T07:29:29;5.78;;;1.98;;
39956;SDS011;48483;44.640;7.494;2023-03-11T07:31:55;4.78;;;1.98;;
39956;SDS011;48483;44.640;7.494;2023-03-11T07:34:22;4.57;;;1.83;;
39956;SDS011;48483;44.640;7.494;2023-03-11T07:36:50;5.55;;;2.72;;
39956;SDS011;48483;44.640;7.494;2023-03-11T07:39:17;4.70;;;2.03;;
39956;SDS011;48483;44.640;7.494;2023-03-11T07:41:44;4.30;;;2.58;;
39956;SDS011;48483;44.640;7.494;2023-03-11T07:44:11;5.93;;;2.97;;
39956;SDS011;48483;44.640;7.494;2023-03-11T07:46:39;13.73;;;3.45;;
39956;SDS011;48483;44.640;7.494;2023-03-11T07:49:06;7.03;;;3.33;;
39956;SDS011;48483;44.640;7.494;2023-03-11T07:51:34;7.82;;;2.78;;
39956;SDS011;48483;44.640;7.494;2023-03-11T07:54:03;7.07;;;2.53;;
39956;SDS011;48483;44.640;7.494;2023-03-11T07:56:31;7.45;;;2.88;;
39956;SDS011;48483;44.640;7.494;2023-03-11T07:58:59;7.55;;;2.50;;
39956;SDS011;48483;44.640;7.494;2023-03-11T08:01:28;3.85;;;1.90;;
39956;SDS011;48483;44.640;7.494;2023-03-11T08:04:01;7.78;;;2.53;;
39956;SDS011;48483;44.640;7.494;2023-03-11T08:06:30;4.75;;;2.28;;
39956;SDS011;48483;44.640;7.494;2023-03-11T08:08:58;7.28;;;1.80;;
39956;SDS011;48483;44.640;7.494;2023-03-11T08:11:28;5.90;;;2.15;;
39956;SDS011;48483;44.640;7.494;2023-03-11T08:13:56;4.47;;;2.25;;
39956;SDS011;48483;44.640;7.494;2023-03-11T08:16:23;13.98;;;3.42;;
39956;SDS011;48483;44.640;7.494;2023-03-11T08:18:50;7.53;;;2.38;;
39956;SDS011;48483;44.640;7.494;2023-03-11T08:21:18;6.40;;;2.75;;
39956;SDS011;48483;44.640;7.494;2023-03-11T08:23:47;7.63;;;2.58;;
39956;SDS011;48483;44.640;7.494;2023-03-11T08:26:14;5.63;;;2.22;;
39956;SDS011;48483;44.640;7.494;2023-03-11T08:28:44;4.63;;;2.22;;
39956;SDS011;48483;44.640;7.494;2023-03-11T08:31:11;4.30;;;2.40;;
39956;SDS011;48483;44.640;7.494;2023-03-11T08:33:39;5.55;;;3.17;;
39956;SDS011;48483;44.640;7.494;2023-03-11T08:36:06;6.05;;;2.47;;
39956;SDS011;48483;44.640;7.494;2023-03-11T08:38:33;7.05;;;2.35;;
39956;SDS011;48483;44.640;7.494;2023-03-11T08:40:59;8.63;;;3.10;;
39956;SDS011;48483;44.640;7.494;2023-03-11T08:43:26;8.63;;;2.88;;
39956;SDS011;48483;44.640;7.494;2023-03-11T08:45:54;7.25;;;3.25;;
39956;SDS011;48483;44.640;7.494;2023-03-11T08:48:21;5.13;;;2.30;;
39956;SDS011;48483;44.640;7.494;2023-03-11T08:50:50;4.75;;;2.55;;
39956;SDS011;48483;44.640;7.494;2023-03-11T08:53:16;7.63;;;2.80;;
39956;SDS011;48483;44.640;7.494;2023-03-11T08:55:43;5.28;;;2.55;;
39956;SDS011;48483;44.640;7.494;2023-03-11T08:58:10;6.47;;;3.72;;
39956;SDS011;48483;44.640;7.494;2023-03-11T09:00:37;4.65;;;2.50;;
39956;SDS011;48483;44.640;7.494;2023-03-11T09:03:05;7.82;;;3.88;;
39956;SDS011;48483;44.640;7.494;2023-03-11T09:05:31;8.35;;;2.95;;
39956;SDS011;48483;44.640;7.494;2023-03-11T09:07:58;5.93;;;2.95;;
39956;SDS011;48483;44.640;7.494;2023-03-11T09:10:25;10.65;;;4.28;;
39956;SDS011;48483;44.640;7.494;2023-03-11T09:12:51;6.93;;;3.15;;
39956;SDS011;48483;44.640;7.494;2023-03-11T09:15:18;7.22;;;2.70;;
39956;SDS011;48483;44.640;7.494;2023-03-11T09:17:45;7.85;;;2.90;;
39956;SDS011;48483;44.640;7.494;2023-03-11T09:20:13;6.30;;;1.98;;
39956;SDS011;48483;44.640;7.494;2023-03-11T09:22:40;7.35;;;2.33;;
39956;SDS011;48483;44.640;7.494;2023-03-11T09:25:08;4.60;;;1.67;;
39956;SDS011;48483;44.640;7.494;2023-03-11T09:27:36;4.28;;;1.80;;
39956;SDS011;48483;44.640;7.494;2023-03-11T09:30:03;4.03;;;1.85;;
39956;SDS011;48483;44.640;7.494;2023-03-11T09:32:31;5.78;;;2.25;;
39956;SDS011;48483;44.640;7.494;2023-03-11T09:34:57;6.80;;;2.42;;
39956;SDS011;48483;44.640;7.494;2023-03-11T09:37:26;5.40;;;2.33;;
39956;SDS011;48483;44.640;7.494;2023-03-11T09:39:55;7.70;;;2.38;;
39956;SDS011;48483;44.640;7.494;2023-03-11T09:42:24;4.00;;;1.95;;
39956;SDS011;48483;44.640;7.494;2023-03-11T09:44:58;7.38;;;2.35;;
39956;SDS011;48483;44.640;7.494;2023-03-11T09:47:39;7.93;;;2.95;;
39956;SDS011;48483;44.640;7.494;2023-03-11T09:50:20;4.43;;;2.38;;
39956;SDS011;48483;44.640;7.494;2023-03-11T09:52:57;6.25;;;2.53;;
39956;SDS011;48483;44.640;7.494;2023-03-11T09:55:33;6.15;;;2.30;;
39956;SDS011;48483;44.640;7.494;2023-03-11T09:58:08;4.55;;;2.33;;
39956;SDS011;48483;44.640;7.494;2023-03-11T10:00:42;8.05;;;2.67;;
39956;SDS011;48483;44.640;7.494;2023-03-11T10:03:15;5.80;;;2.47;;
39956;SDS011;48483;44.640;7.494;2023-03-11T10:05:53;4.72;;;2.75;;
39956;SDS011;48483;44.640;7.494;2023-03-11T10:08:29;7.95;;;2.42;;
39956;SDS011;48483;44.640;7.494;2023-03-11T10:11:00;5.15;;;2.40;;
39956;SDS011;48483;44.640;7.494;2023-03-11T10:13:37;5.22;;;2.45;;
39956;SDS011;48483;44.640;7.494;2023-03-11T10:16:11;7.90;;;2.67;;
39956;SDS011;48483;44.640;7.494;2023-03-11T10:18:47;5.47;;;2.47;;
39956;SDS011;48483;44.640;7.494;2023-03-11T10:21:24;5.32;;;2.45;;
39956;SDS011;48483;44.640;7.494;2023-03-11T10:26:35;5.15;;;2.78;;
39956;SDS011;48483;44.640;7.494;2023-03-11T10:29:06;4.80;;;2.67;;
39956;SDS011;48483;44.640;7.494;2023-03-11T10:31:41;6.88;;;2.70;;
39956;SDS011;48483;44.640;7.494;2023-03-11T10:34:14;7.10;;;2.60;;
39956;SDS011;48483;44.640;7.494;2023-03-11T10:36:49;6.85;;;2.97;;
39956;SDS011;48483;44.640;7.494;2023-03-11T10:39:23;6.55;;;2.72;;
39956;SDS011;48483;44.640;7.494;2023-03-11T10:41:52;3.13;;;2.22;;
39956;SDS011;48483;44.640;7.494;2023-03-11T10:44:21;6.63;;;2.50;;
39956;SDS011;48483;44.640;7.494;2023-03-11T10:46:53;4.75;;;2.00;;
39956;SDS011;48483;44.640;7.494;2023-03-11T10:49:19;6.68;;;2.20;;
39956;SDS011;48483;44.640;7.494;2023-03-11T10:51:47;4.93;;;1.92;;
39956;SDS011;48483;44.640;7.494;2023-03-11T10:54:23;5.30;;;1.75;;
39956;SDS011;48483;44.640;7.494;2023-03-11T10:56:53;4.30;;;2.20;;
39956;SDS011;48483;44.640;7.494;2023-03-11T10:59:23;3.30;;;1.80;;
39956;SDS011;48483;44.640;7.494;2023-03-11T11:01:55;3.63;;;1.60;;
39956;SDS011;48483;44.640;7.494;2023-03-11T11:04:30;5.80;;;1.77;;
39956;SDS011;48483;44.640;7.494;2023-03-11T11:07:21;2.63;;;1.25;;
39956;SDS011;48483;44.640;7.494;2023-03-11T11:12:51;4.05;;;1.90;;
39956;SDS011;48483;44.640;7.494;2023-03-11T11:15:21;4.80;;;1.98;;
39956;SDS011;48483;44.640;7.494;2023-03-11T11:17:50;6.03;;;2.03;;
39956;SDS011;48483;44.640;7.494;2023-03-11T11:20:20;3.90;;;1.50;;
39956;SDS011;48483;44.640;7.494;2023-03-11T11:22:49;7.03;;;1.92;;
39956;SDS011;48483;44.640;7.494;2023-03-11T11:25:25;3.08;;;1.63;;
39956;SDS011;48483;44.640;7.494;2023-03-11T11:27:56;4.85;;;1.70;;
39956;SDS011;48483;44.640;7.494;2023-03-11T11:30:24;2.13;;;1.30;;
39956;SDS011;48483;44.640;7.494;2023-03-11T11:32:51;2.47;;;1.30;;
39956;SDS011;48483;44.640;7.494;2023-03-11T11:35:20;3.35;;;1.30;;
39956;SDS011;48483;44.640;7.494;2023-03-11T11:37:49;1.95;;;1.25;;
39956;SDS011;48483;44.640;7.494;2023-03-11T11:40:23;3.88;;;1.50;;
39956;SDS011;48483;44.640;7.494;2023-03-11T11:42:53;1.73;;;1.10;;
39956;SDS011;48483;44.640;7.494;2023-03-11T11:45:28;5.07;;;1.38;;
39956;SDS011;48483;44.640;7.494;2023-03-11T11:48:03;6.57;;;1.38;;
39956;SDS011;48483;44.640;7.494;2023-03-11T11:50:39;3.10;;;1.50;;
39956;SDS011;48483;44.640;7.494;2023-03-11T11:53:12;2.13;;;1.25;;
39956;SDS011;48483;44.640;7.494;2023-03-11T11:55:49;2.80;;;1.20;;
39956;SDS011;48483;44.640;7.494;2023-03-11T11:58:21;1.88;;;1.10;;
39956;SDS011;48483;44.640;7.494;2023-03-11T12:00:50;2.88;;;1.20;;
39956;SDS011;48483;44.640;7.494;2023-03-11T12:06:28;3.28;;;1.35;;
39956;SDS011;48483;44.640;7.494;2023-03-11T12:09:02;5.40;;;1.63;;
39956;SDS011;48483;44.640;7.494;2023-03-11T12:11:40;5.50;;;1.58;;
39956;SDS011;48483;44.640;7.494;2023-03-11T12:14:16;9.90;;;1.88;;
39956;SDS011;48483;44.640;7.494;2023-03-11T12:16:47;2.85;;;1.42;;
39956;SDS011;48483;44.640;7.494;2023-03-11T12:19:32;5.28;;;1.45;;
39956;SDS011;48483;44.640;7.494;2023-03-11T12:22:24;3.90;;;1.38;;
39956;SDS011;48483;44.640;7.494;2023-03-11T12:25:19;6.38;;;1.10;;
39956;SDS011;48483;44.640;7.494;2023-03-11T12:27:54;3.17;;;1.27;;
39956;SDS011;48483;44.640;7.494;2023-03-11T12:30:27;5.28;;;2.05;;
39956;SDS011;48483;44.640;7.494;2023-03-11T12:32:56;3.60;;;1.50;;
39956;SDS011;48483;44.640;7.494;2023-03-11T12:35:27;3.20;;;1.65;;
39956;SDS011;48483;44.640;7.494;2023-03-11T12:38:01;3.55;;;1.50;;
39956;SDS011;48483;44.640;7.494;2023-03-11T12:40:49;3.92;;;1.77;;
39956;SDS011;48483;44.640;7.494;2023-03-11T12:43:24;2.15;;;1.52;;
39956;SDS011;48483;44.640;7.494;2023-03-11T12:45:59;2.72;;;1.20;;
39956;SDS011;48483;44.640;7.494;2023-03-11T12:48:34;3.95;;;1.10;;
39956;SDS011;48483;44.640;7.494;2023-03-11T12:51:06;4.68;;;1.25;;
39956;SDS011;48483;44.640;7.494;2023-03-11T12:56:57;2.53;;;1.33;;
39956;SDS011;48483;44.640;7.494;2023-03-11T13:02:33;4.10;;;0.88;;
39956;SDS011;48483;44.640;7.494;2023-03-11T13:05:16;2.30;;;1.00;;
39956;SDS011;48483;44.640;7.494;2023-03-11T13:07:52;6.60;;;1.17;;
39956;SDS011;48483;44.640;7.494;2023-03-11T13:10:35;1.77;;;0.95;;
39956;SDS011;48483;44.640;7.494;2023-03-11T13:22:01;2.05;;;0.70;;
39956;SDS011;48483;44.640;7.494;2023-03-11T13:24:39;5.65;;;1.13;;
39956;SDS011;48483;44.640;7.494;2023-03-11T13:27:14;2.85;;;1.38;;
39956;SDS011;48483;44.640;7.494;2023-03-11T13:30:00;3.53;;;0.68;;
39956;SDS011;48483;44.640;7.494;2023-03-11T13:32:40;1.77;;;0.57;;
39956;SDS011;48483;44.640;7.494;2023-03-11T13:35:47;0.43;;;0.43;;
39956;SDS011;48483;44.640;7.494;2023-03-11T13:41:39;3.95;;;0.30;;
39956;SDS011;48483;44.640;7.494;2023-03-11T13:44:10;4.10;;;0.40;;
39956;SDS011;48483;44.640;7.494;2023-03-11T13:46:41;1.63;;;0.30;;
39956;SDS011;48483;44.640;7.494;2023-03-11T13:49:19;3.40;;;0.30;;
39956;SDS011;48483;44.640;7.494;2023-03-11T13:51:52;0.25;;;0.22;;
39956;SDS011;48483;44.640;7.494;2023-03-11T13:56:54;2.15;;;0.30;;
39956;SDS011;48483;44.640;7.494;2023-03-11T13:59:24;0.30;;;0.10;;
39956;SDS011;48483;44.640;7.494;2023-03-11T14:01:52;1.95;;;0.20;;
39956;SDS011;48483;44.640;7.494;2023-03-11T14:04:22;0.80;;;0.32;;
39956;SDS011;48483;44.640;7.494;2023-03-11T14:06:53;0.60;;;0.30;;
39956;SDS011;48483;44.640;7.494;2023-03-11T14:09:20;0.55;;;0.20;;
39956;SDS011;48483;44.640;7.494;2023-03-11T14:11:48;2.90;;;0.30;;
39956;SDS011;48483;44.640;7.494;2023-03-11T14:14:26;0.73;;;0.30;;
39956;SDS011;48483;44.640;7.494;2023-03-11T14:17:11;0.38;;;0.20;;
39956;SDS011;48483;44.640;7.494;2023-03-11T14:19:41;1.77;;;0.20;;
39956;SDS011;48483;44.640;7.494;2023-03-11T14:22:09;0.20;;;0.20;;
39956;SDS011;48483;44.640;7.494;2023-03-11T14:24:36;1.35;;;0.30;;
39956;SDS011;48483;44.640;7.494;2023-03-11T14:27:06;0.73;;;0.30;;
39956;SDS011;48483;44.640;7.494;2023-03-11T14:29:35;0.50;;;0.25;;
39956;SDS011;48483;44.640;7.494;2023-03-11T14:32:19;0.52;;;0.25;;
39956;SDS011;48483;44.640;7.494;2023-03-11T14:34:51;0.65;;;0.30;;
39956;SDS011;48483;44.640;7.494;2023-03-11T14:37:31;3.20;;;0.30;;
39956;SDS011;48483;44.640;7.494;2023-03-11T14:39:59;14.20;;;0.70;;
39956;SDS011;48483;44.640;7.494;2023-03-11T14:42:26;0.52;;;0.30;;
39956;SDS011;48483;44.640;7.494;2023-03-11T14:45:00;0.93;;;0.40;;
39956;SDS011;48483;44.640;7.494;2023-03-11T14:47:32;1.52;;;1.08;;
39956;SDS011;48483;44.640;7.494;2023-03-11T14:50:03;0.68;;;0.30;;
39956;SDS011;48483;44.640;7.494;2023-03-11T14:52:36;0.60;;;0.40;;
39956;SDS011;48483;44.640;7.494;2023-03-11T14:55:09;1.40;;;0.20;;
39956;SDS011;48483;44.640;7.494;2023-03-11T14:57:40;1.23;;;0.30;;
39956;SDS011;48483;44.640;7.494;2023-03-11T15:00:12;0.20;;;0.20;;
39956;SDS011;48483;44.640;7.494;2023-03-11T15:02:48;1.85;;;0.30;;
39956;SDS011;48483;44.640;7.494;2023-03-11T15:05:23;1.15;;;0.30;;
39956;SDS011;48483;44.640;7.494;2023-03-11T15:07:59;0.52;;;0.20;;
39956;SDS011;48483;44.640;7.494;2023-03-11T15:10:28;0.90;;;0.40;;
39956;SDS011;48483;44.640;7.494;2023-03-11T15:15:40;6.93;;;0.57;;
39956;SDS011;48483;44.640;7.494;2023-03-11T15:18:21;0.30;;;0.30;;
39956;SDS011;48483;44.640;7.494;2023-03-11T15:21:06;0.90;;;0.20;;
39956;SDS011;48483;44.640;7.494;2023-03-11T15:23:40;2.63;;;0.50;;
39956;SDS011;48483;44.640;7.494;2023-03-11T15:26:16;1.08;;;0.30;;
39956;SDS011;48483;44.640;7.494;2023-03-11T15:28:45;0.93;;;0.40;;
39956;SDS011;48483;44.640;7.494;2023-03-11T15:31:27;1.85;;;0.32;;
39956;SDS011;48483;44.640;7.494;2023-03-11T15:34:09;2.78;;;0.30;;
39956;SDS011;48483;44.640;7.494;2023-03-11T15:36:53;0.85;;;0.30;;
39956;SDS011;48483;44.640;7.494;2023-03-11T15:39:25;1.00;;;0.22;;
39956;SDS011;48483;44.640;7.494;2023-03-11T15:42:10;0.55;;;0.32;;
39956;SDS011;48483;44.640;7.494;2023-03-11T15:44:47;0.22;;;0.20;;
39956;SDS011;48483;44.640;7.494;2023-03-11T15:47:25;1.33;;;0.30;;
39956;SDS011;48483;44.640;7.494;2023-03-11T15:49:52;0.20;;;0.20;;